Time;durP1;ratioP1;P1;durP2;ratioP2;P2;SDS_P1;SDS_P2;PMS_P1;PMS_P2;Temp;Humidity;BMP_temperature;BMP_pressure;BME280_temperature;BME280_humidity;BME280_pressure;Samples;Min_cycle;Max_cycle;Signal;HPM_P1;HPM_P2
2022/05/02 00:00:07;;;;;;;;;;;;;;;21.57;68.59;97138.45;582440;243;68753;-68
2022/05/02 00:02:35;;;;;;;;;;;;;;;21.57;68.44;97138.45;582430;243;66728;-68
2022/05/02 00:05:03;;;;;;;;;;;;;;;21.57;68.32;97141.13;582415;243;65491;-68
2022/05/02 00:07:30;;;;;;;;;;;;;;;21.57;68.51;97146.47;582510;243;68719;-69
2022/05/02 00:09:57;;;;;;;;;;;;;;;21.57;68.57;97141.13;582434;243;66513;-69
2022/05/02 00:12:25;;;;;;;;;;;;;;;21.56;68.64;97134.19;582425;243;65175;-69
2022/05/02 00:14:52;;;;;;;;;;;;;;;21.56;68.70;97134.19;582428;243;68651;-69
2022/05/02 00:17:56;;;;;;;;;;;;;;;21.54;69.04;97133.64;582437;243;68535;-69
2022/05/02 00:19:49;;;;;;;;;;;;;;;21.55;68.69;97137.91;582783;242;63351;-69
2022/05/02 00:22:17;;;;;;;;;;;;;;;21.55;68.96;97137.91;582449;243;66718;-69
2022/05/02 00:24:44;;;;;;;;;;;;;;;21.55;69.39;97138.70;582445;243;66623;-69
2022/05/02 00:27:12;;;;;;;;;;;;;;;21.54;68.67;97134.44;582420;243;65464;-69
2022/05/02 00:29:39;;;;;;;;;;;;;;;21.53;68.25;97138.20;582354;243;68878;-69
2022/05/02 00:32:09;;;;;;;;;;;;;;;21.54;68.80;97130.97;582482;243;68487;-69
2022/05/02 00:34:36;;;;;;;;;;;;;;;21.54;68.29;97128.30;582493;243;65377;-69
2022/05/02 00:37:04;;;;;;;;;;;;;;;21.54;69.32;97133.64;582492;243;68887;-68
2022/05/02 00:39:32;;;;;;;;;;;;;;;21.54;68.53;97125.63;582454;243;69051;-68
2022/05/02 00:41:59;;;;;;;;;;;;;;;21.53;68.71;97124.83;582440;243;65314;-68
2022/05/02 00:44:27;;;;;;;;;;;;;;;21.53;68.61;97129.38;582482;243;68796;-68
2022/05/02 00:46:54;;;;;;;;;;;;;;;21.54;68.82;97117.60;582531;243;68805;-68
2022/05/02 00:49:22;;;;;;;;;;;;;;;21.55;69.73;97127.22;582450;243;65231;-68
2022/05/02 00:51:49;;;;;;;;;;;;;;;21.53;68.64;97124.83;582495;243;68838;-68
2022/05/02 00:54:17;;;;;;;;;;;;;;;21.54;68.82;97122.95;582458;243;68724;-68
2022/05/02 00:56:44;;;;;;;;;;;;;;;21.53;68.33;97124.03;582456;243;65345;-68
2022/05/02 00:59:13;;;;;;;;;;;;;;;21.50;69.04;97125.38;582532;243;68709;-68
2022/05/02 01:01:41;;;;;;;;;;;;;;;21.50;68.21;97125.38;582420;242;66614;-68
2022/05/02 01:04:08;;;;;;;;;;;;;;;21.52;68.68;97125.09;582439;243;63286;-68
2022/05/02 01:09:22;;;;;;;;;;;;;;;21.48;68.88;97130.98;582439;243;66571;-68
2022/05/02 01:11:49;;;;;;;;;;;;;;;21.48;68.79;97120.28;582448;243;63119;-68
2022/05/02 01:14:16;;;;;;;;;;;;;;;21.49;69.56;97124.55;582505;243;66333;-68
2022/05/02 01:16:44;;;;;;;;;;;;;;;21.48;69.15;97122.95;582457;243;66496;-69
2022/05/02 01:19:11;;;;;;;;;;;;;;;21.47;68.89;97124.05;582463;243;63017;-68
2022/05/02 01:21:40;;;;;;;;;;;;;;;21.47;69.29;97118.70;582453;243;68662;-69
2022/05/02 01:24:08;;;;;;;;;;;;;;;21.47;68.69;97124.05;582437;243;68614;-68
2022/05/02 01:26:37;;;;;;;;;;;;;;;21.46;69.13;97119.75;582495;243;65490;-69
2022/05/02 01:29:06;;;;;;;;;;;;;;;21.45;69.04;97112.81;583084;242;66321;-68
2022/05/02 01:31:34;;;;;;;;;;;;;;;21.47;69.05;97110.67;585060;242;68499;-69
2022/05/02 01:34:01;;;;;;;;;;;;;;;21.45;69.42;97104.79;585102;242;65375;-69
2022/05/02 01:36:29;;;;;;;;;;;;;;;21.44;68.89;97111.22;585086;242;68633;-68
2022/05/02 01:38:57;;;;;;;;;;;;;;;21.45;69.01;97098.65;585130;242;66480;-69
2022/05/02 01:41:24;;;;;;;;;;;;;;;21.45;68.84;97102.11;585083;242;63048;-68
2022/05/02 01:43:52;;;;;;;;;;;;;;;21.45;68.73;97099.44;585093;242;66419;-68
2022/05/02 01:46:20;;;;;;;;;;;;;;;21.45;68.17;97093.30;585103;240;66225;-68
2022/05/02 01:48:47;;;;;;;;;;;;;;;21.44;69.12;97089.83;585051;242;63060;-69
2022/05/02 01:51:15;;;;;;;;;;;;;;;21.44;68.55;97086.33;585136;242;66524;-68
2022/05/02 01:53:42;;;;;;;;;;;;;;;21.43;68.37;97088.21;585051;242;66790;-68
2022/05/02 01:56:10;;;;;;;;;;;;;;;21.44;69.31;97080.98;585097;242;63170;-68
2022/05/02 01:58:37;;;;;;;;;;;;;;;21.43;69.17;97077.52;585079;242;66441;-69
2022/05/02 02:01:05;;;;;;;;;;;;;;;21.44;68.68;97068.44;585100;242;66689;-68
2022/05/02 02:03:32;;;;;;;;;;;;;;;21.43;68.50;97074.84;585057;242;63122;-68
2022/05/02 02:06:00;;;;;;;;;;;;;;;21.43;69.26;97074.05;585145;242;66457;-68
2022/05/02 02:08:28;;;;;;;;;;;;;;;21.43;69.38;97074.05;585103;242;68328;-68
2022/05/02 02:10:58;;;;;;;;;;;;;;;21.43;68.70;97074.05;585135;242;65470;-68
2022/05/02 02:13:25;;;;;;;;;;;;;;;21.42;69.22;97070.58;585104;242;68294;-68
2022/05/02 02:15:53;;;;;;;;;;;;;;;21.41;69.15;97066.28;585101;242;68556;-68
2022/05/02 02:18:21;;;;;;;;;;;;;;;21.42;69.22;97065.23;585141;242;63089;-68
2022/05/02 02:20:49;;;;;;;;;;;;;;;21.41;68.94;97063.61;585115;242;66401;-68
2022/05/02 02:23:17;;;;;;;;;;;;;;;21.41;68.93;97057.47;585110;242;66082;-68
2022/05/02 02:25:44;;;;;;;;;;;;;;;21.40;69.04;97058.55;585109;242;63097;-68
2022/05/02 02:28:15;;;;;;;;;;;;;;;21.40;68.83;97056.67;585117;242;66227;-68
2022/05/02 02:30:43;;;;;;;;;;;;;;;21.39;69.21;97052.41;582654;241;66198;-68
2022/05/02 02:33:11;;;;;;;;;;;;;;;21.40;69.26;97058.55;582428;243;63099;-68
2022/05/02 02:35:38;;;;;;;;;;;;;;;21.38;69.08;97048.12;582476;243;68681;-68
2022/05/02 02:38:09;;;;;;;;;;;;;;;21.37;68.90;97041.19;582449;243;68615;-68
2022/05/02 02:40:35;;;;;;;;;;;;;;;21.39;69.27;97049.73;582455;243;65557;-68
2022/05/02 02:43:03;;;;;;;;;;;;;;;21.39;69.20;97043.56;582437;243;68671;-68
2022/05/02 02:45:30;;;;;;;;;;;;;;;21.39;69.70;97040.89;582453;243;68467;-68
2022/05/02 02:47:58;;;;;;;;;;;;;;;21.38;68.72;97045.45;582446;243;65383;-68
2022/05/02 02:50:26;;;;;;;;;;;;;;;21.37;69.36;97038.52;582454;243;68643;-68
2022/05/02 02:52:53;;;;;;;;;;;;;;;21.37;68.45;97035.02;582437;243;68625;-68
2022/05/02 02:55:20;;;;;;;;;;;;;;;21.37;69.55;97040.36;582447;243;65558;-68
2022/05/02 02:57:48;;;;;;;;;;;;;;;21.36;68.97;97028.05;582425;243;68707;-68
2022/05/02 03:00:16;;;;;;;;;;;;;;;21.35;68.62;97037.95;582478;243;69210;-69
2022/05/02 03:02:44;;;;;;;;;;;;;;;21.34;69.50;97039.03;582431;243;65393;-68
2022/05/02 03:07:58;;;;;;;;;;;;;;;21.35;69.25;97037.95;582374;243;66851;-70
2022/05/02 03:10:27;;;;;;;;;;;;;;;21.35;70.00;97042.50;582452;243;63047;-70
2022/05/02 03:12:55;;;;;;;;;;;;;;;21.35;69.38;97037.15;582430;241;68458;-70
2022/05/02 03:15:23;;;;;;;;;;;;;;;21.33;69.64;97039.29;582452;243;66632;-70
2022/05/02 03:17:50;;;;;;;;;;;;;;;21.31;69.06;97042.25;582444;243;63195;-70
2022/05/02 03:20:18;;;;;;;;;;;;;;;21.30;69.50;97040.62;582417;243;68860;-70
2022/05/02 03:22:45;;;;;;;;;;;;;;;21.31;69.19;97044.92;582466;241;68596;-70
2022/05/02 03:25:13;;;;;;;;;;;;;;;21.31;70.00;97042.25;582455;243;63258;-70
2022/05/02 03:27:40;;;;;;;;;;;;;;;21.30;69.83;97045.98;582444;243;68363;-70
2022/05/02 03:30:08;;;;;;;;;;;;;;;21.31;69.64;97044.92;584228;242;68641;-70
2022/05/02 03:32:35;;;;;;;;;;;;;;;21.30;68.85;97040.62;585059;242;65142;-70
2022/05/02 03:35:03;;;;;;;;;;;;;;;21.31;69.42;97049.45;585113;242;68892;-69
2022/05/02 03:37:30;;;;;;;;;;;;;;;21.30;69.62;97056.67;585110;242;68705;-69
2022/05/02 03:39:58;;;;;;;;;;;;;;;21.28;69.27;97045.47;585086;242;65407;-69
2022/05/02 03:42:25;;;;;;;;;;;;;;;21.28;68.52;97048.14;585080;242;68638;-70
2022/05/02 03:44:53;;;;;;;;;;;;;;;21.28;69.30;97048.14;585074;242;68543;-70
2022/05/02 03:47:20;;;;;;;;;;;;;;;21.27;69.18;97049.20;585072;242;65072;-70
2022/05/02 03:49:48;;;;;;;;;;;;;;;21.26;69.17;97060.97;585144;242;66449;-70
2022/05/02 03:52:15;;;;;;;;;;;;;;;21.26;68.78;97055.62;585065;242;66789;-70
2022/05/02 03:54:43;;;;;;;;;;;;;;;21.28;68.95;97059.63;585084;242;62994;-70
2022/05/02 03:57:10;;;;;;;;;;;;;;;21.28;68.74;97059.63;585061;242;68639;-70
2022/05/02 03:59:38;;;;;;;;;;;;;;;21.28;69.25;97059.63;585083;242;68540;-70
2022/05/02 04:02:05;;;;;;;;;;;;;;;21.26;68.51;97055.62;585763;241;63041;-70
2022/05/02 04:04:33;;;;;;;;;;;;;;;21.26;68.36;97047.61;585069;242;68628;-70
2022/05/02 04:07:00;;;;;;;;;;;;;;;21.25;68.57;97054.83;585083;242;68660;-70
2022/05/02 04:09:28;;;;;;;;;;;;;;;21.26;69.31;97058.30;585123;242;65488;-70
2022/05/02 04:11:56;;;;;;;;;;;;;;;21.26;68.14;97058.30;585112;242;68662;-70
2022/05/02 04:14:24;;;;;;;;;;;;;;;21.27;68.76;97052.66;585176;242;66412;-70
2022/05/02 04:16:51;;;;;;;;;;;;;;;21.27;68.96;97049.98;585097;242;64173;-70
2022/05/02 04:19:19;;;;;;;;;;;;;;;21.25;69.34;97048.66;585107;242;68624;-70
2022/05/02 04:21:46;;;;;;;;;;;;;;;21.25;69.17;97049.48;585099;242;66888;-70
2022/05/02 04:24:14;;;;;;;;;;;;;;;21.25;69.34;97049.48;585123;242;63132;-70
2022/05/02 04:26:41;;;;;;;;;;;;;;;21.25;69.64;97046.81;585129;242;66550;-69
2022/05/02 04:29:09;;;;;;;;;;;;;;;21.25;69.55;97040.64;585029;242;66485;-69
2022/05/02 04:31:36;;;;;;;;;;;;;;;21.24;69.05;97037.17;585125;240;64997;-70
2022/05/02 04:34:04;;;;;;;;;;;;;;;21.24;69.61;97039.05;585099;242;68647;-70
2022/05/02 04:36:31;;;;;;;;;;;;;;;21.24;69.27;97041.72;585093;242;68606;-70
2022/05/02 04:38:59;;;;;;;;;;;;;;;21.24;69.05;97049.74;585174;242;65221;-70
2022/05/02 04:41:26;;;;;;;;;;;;;;;21.22;69.38;97044.66;585085;242;68332;-70
2022/05/02 04:43:55;;;;;;;;;;;;;;;21.22;69.37;97050.00;585065;242;68542;-70
2022/05/02 04:46:23;;;;;;;;;;;;;;;21.22;69.31;97041.19;585091;242;65137;-70
2022/05/02 04:48:50;;;;;;;;;;;;;;;21.22;69.21;97043.86;585097;242;69012;-70
2022/05/02 04:51:17;;;;;;;;;;;;;;;21.22;70.25;97038.52;585094;242;68606;-70
2022/05/02 04:53:45;;;;;;;;;;;;;;;21.20;70.57;97041.47;585105;242;65370;-70
2022/05/02 04:56:13;;;;;;;;;;;;;;;21.20;70.17;97032.66;585049;242;68655;-70
2022/05/02 04:58:40;;;;;;;;;;;;;;;21.20;68.80;97038.01;585092;242;68553;-70
2022/05/02 05:01:08;;;;;;;;;;;;;;;21.21;69.72;97034.25;585088;242;63955;-70
2022/05/02 05:03:36;;;;;;;;;;;;;;;21.20;69.51;97029.99;585090;242;68655;-70
2022/05/02 05:06:03;;;;;;;;;;;;;;;21.20;69.93;97030.78;585123;242;68384;-70
2022/05/02 05:08:31;;;;;;;;;;;;;;;21.19;69.82;97029.16;585066;242;63103;-70
2022/05/02 05:11:16;;;;;;;;;;;;;;;21.19;69.71;97033.72;585044;242;66489;-70
2022/05/02 05:16:20;;;;;;;;;;;;;;;21.19;69.46;97039.86;585110;242;66503;-68
2022/05/02 05:16:25;;;;;;;;;;;;;;;21.19;69.71;97033.72;584416;242;62967;-68
2022/05/02 05:18:54;;;;;;;;;;;;;;;21.20;69.79;97038.01;584357;242;68661;-70
2022/05/02 05:21:26;;;;;;;;;;;;;;;21.19;69.36;97034.52;585100;242;66307;-70
2022/05/02 05:24:04;;;;;;;;;;;;;;;21.18;68.91;97032.12;585039;241;63052;-68
2022/05/02 05:26:36;;;;;;;;;;;;;;;21.17;69.86;97027.84;584837;242;66476;-69
2022/05/02 05:29:22;;;;;;;;;;;;;;;21.17;69.87;97022.48;584383;242;66293;-68
2022/05/02 05:31:54;;;;;;;;;;;;;;;21.17;69.63;97017.97;582435;243;65614;-69
2022/05/02 05:34:24;;;;;;;;;;;;;;;21.17;69.41;97011.80;582373;242;68677;-69
2022/05/02 05:36:53;;;;;;;;;;;;;;;21.18;69.56;97010.75;582486;243;66916;-69
2022/05/02 05:39:22;;;;;;;;;;;;;;;21.16;69.87;97011.00;582272;241;65103;-69
2022/05/02 05:42:00;;;;;;;;;;;;;;;21.16;70.10;97002.98;582342;242;68784;-69
2022/05/02 05:44:35;;;;;;;;;;;;;;;21.15;69.41;97012.09;582351;243;66747;-69
2022/05/02 05:47:04;;;;;;;;;;;;;;;21.17;69.37;97019.81;582442;243;63146;-68
2022/05/02 05:49:39;;;;;;;;;;;;;;;21.17;69.30;97017.14;582472;243;69011;-69
2022/05/02 05:52:14;;;;;;;;;;;;;;;21.16;69.41;97013.67;582354;240;68535;-69
2022/05/02 05:54:52;;;;;;;;;;;;;;;21.16;69.49;96996.84;582350;242;65203;-72
2022/05/02 05:57:21;;;;;;;;;;;;;;;21.16;69.55;97005.66;582376;243;66199;-71
2022/05/02 05:59:51;;;;;;;;;;;;;;;21.14;69.78;97004.33;581534;241;68634;-72
2022/05/02 06:02:26;;;;;;;;;;;;;;;21.15;70.22;97008.63;588596;241;63001;-71
2022/05/02 06:04:56;;;;;;;;;;;;;;;21.16;69.78;97010.20;588389;241;68885;-71
2022/05/02 06:07:24;;;;;;;;;;;;;;;21.16;70.55;97007.54;588414;241;66451;-71
2022/05/02 06:09:53;;;;;;;;;;;;;;;21.10;69.11;97012.09;588368;241;63010;-70
2022/05/02 06:12:22;;;;;;;;;;;;;;;21.09;69.38;97010.51;588621;241;66541;-72
2022/05/02 06:20:22;;;;;;;;;;;;;;;21.14;69.26;97004.33;588634;241;66155;-72
2022/05/02 06:22:49;;;;;;;;;;;;;;;21.12;68.71;97004.62;588594;241;68537;-71
2022/05/02 06:25:18;;;;;;;;;;;;;;;21.15;68.68;96997.94;588670;241;65144;-72
2022/05/02 06:27:48;;;;;;;;;;;;;;;21.14;68.82;96991.77;588530;241;68876;-76
2022/05/02 06:30:16;;;;;;;;;;;;;;;21.15;69.11;96997.94;590656;240;68308;-72
2022/05/02 06:32:44;;;;;;;;;;;;;;;21.15;68.28;97001.40;591430;240;63919;-72
2022/05/02 06:35:11;;;;;;;;;;;;;;;21.15;68.58;96993.38;591354;240;66140;-73
2022/05/02 06:37:50;;;;;;;;;;;;;;;21.18;69.20;96994.71;591401;240;66382;-73
2022/05/02 06:40:21;;;;;;;;;;;;;;;21.18;70.04;96984.02;590457;240;65166;-73
2022/05/02 06:42:50;;;;;;;;;;;;;;;21.18;68.43;96989.36;591055;240;68458;-72
2022/05/02 06:45:28;;;;;;;;;;;;;;;21.18;68.96;96982.14;591195;240;68308;-72
2022/05/02 06:48:09;;;;;;;;;;;;;;;21.17;68.88;96983.23;591319;240;65466;-72
2022/05/02 06:50:37;;;;;;;;;;;;;;;21.16;68.80;96978.94;591344;240;68636;-72
2022/05/02 06:53:09;;;;;;;;;;;;;;;21.17;68.66;96971.72;591354;240;66916;-69
2022/05/02 06:55:49;;;;;;;;;;;;;;;21.15;67.92;96980.02;591421;240;65961;-69
2022/05/02 06:58:20;;;;;;;;;;;;;;;21.16;68.38;96967.45;586105;240;67679;-70
2022/05/02 07:00:49;;;;;;;;;;;;;;;21.16;68.72;96965.58;591139;240;68631;-70
2022/05/02 07:03:20;;;;;;;;;;;;;;;21.17;68.13;96955.68;591060;240;65266;-69
2022/05/02 07:05:58;;;;;;;;;;;;;;;21.16;67.81;96967.45;591368;240;69198;-69
2022/05/02 07:08:29;;;;;;;;;;;;;;;21.18;67.55;96959.97;591137;240;68684;-68
2022/05/02 07:10:58;;;;;;;;;;;;;;;21.17;68.29;96956.50;591437;240;65729;-70
2022/05/02 07:13:42;;;;;;;;;;;;;;;21.18;67.76;96963.44;591317;240;68524;-68
2022/05/02 07:16:17;;;;;;;;;;;;;;;21.20;68.42;96955.16;591107;240;69478;-70
2022/05/02 07:18:50;;;;;;;;;;;;;;;21.20;68.27;96955.16;591307;240;65329;-70
2022/05/02 07:21:21;;;;;;;;;;;;;;;21.19;66.97;96957.01;589819;240;69058;-68
2022/05/02 07:23:50;;;;;;;;;;;;;;;21.21;68.11;96951.41;591130;240;68700;-69
2022/05/02 07:26:20;;;;;;;;;;;;;;;21.21;67.60;96951.41;591172;240;65361;-71
2022/05/02 07:28:49;;;;;;;;;;;;;;;21.23;68.80;96949.27;591378;240;66811;-69
2022/05/02 07:31:21;;;;;;;;;;;;;;;21.24;68.57;96945.50;591308;240;66592;-68
2022/05/02 07:33:50;;;;;;;;;;;;;;;21.24;68.31;96934.81;591376;240;65343;-70
2022/05/02 07:36:18;;;;;;;;;;;;;;;21.25;68.15;96931.06;591443;240;68673;-69
2022/05/02 07:38:47;;;;;;;;;;;;;;;21.24;67.60;96934.81;591365;240;66465;-69
2022/05/02 07:41:25;;;;;;;;;;;;;;;21.23;66.71;96928.67;591432;240;65146;-72
2022/05/02 07:43:58;;;;;;;;;;;;;;;21.25;66.49;96925.72;591346;240;66627;-72
2022/05/02 07:46:28;;;;;;;;;;;;;;;21.25;66.96;96921.19;591387;240;66463;-74
2022/05/02 07:48:57;;;;;;;;;;;;;;;21.25;66.23;96918.52;591431;240;65411;-70
2022/05/02 07:51:25;;;;;;;;;;;;;;;21.27;67.11;96924.37;591398;240;66666;-73
2022/05/02 07:53:53;;;;;;;;;;;;;;;21.26;66.32;96916.64;591379;240;69257;-71
2022/05/02 07:56:23;;;;;;;;;;;;;;;21.26;66.56;96921.98;591422;240;63048;-71
2022/05/02 07:58:53;;;;;;;;;;;;;;;21.26;66.93;96916.64;591044;240;68648;-74
2022/05/02 08:01:23;;;;;;;;;;;;;;;21.27;66.37;96913.67;591416;240;66263;-70
2022/05/02 08:03:51;;;;;;;;;;;;;;;21.27;66.30;96916.34;591349;240;64110;-71
2022/05/02 08:06:37;;;;;;;;;;;;;;;21.28;67.22;96909.95;591436;240;66272;-70
2022/05/02 08:09:12;;;;;;;;;;;;;;;21.28;66.98;96899.26;591375;240;68895;-72
2022/05/02 08:11:41;;;;;;;;;;;;;;;21.28;66.77;96899.26;591398;240;63135;-70
2022/05/02 08:14:10;;;;;;;;;;;;;;;21.29;66.95;96906.19;591124;240;68673;-72
2022/05/02 08:16:39;;;;;;;;;;;;;;;21.28;65.93;96898.47;591302;240;69641;-72
2022/05/02 08:19:08;;;;;;;;;;;;;;;21.28;65.00;96899.26;591435;240;65374;-70
2022/05/02 08:21:39;;;;;;;;;;;;;;;21.31;67.57;96892.56;591100;240;68649;-70
2022/05/02 08:27:16;;;;;;;;;;;;;;;21.31;67.54;96886.39;591422;240;65456;-67
2022/05/02 08:29:45;;;;;;;;;;;;;;;21.31;67.52;96876.52;591276;240;68362;-71
2022/05/02 08:32:31;;;;;;;;;;;;;;;21.33;67.73;96878.91;591273;240;66468;-71
2022/05/02 08:35:00;;;;;;;;;;;;;;;21.33;67.36;96873.56;591342;240;65356;-72
2022/05/02 08:37:46;;;;;;;;;;;;;;;21.32;66.54;96880.78;591379;240;68919;-71
2022/05/02 08:40:23;;;;;;;;;;;;;;;21.32;66.27;96875.44;591378;240;68630;-71
2022/05/02 08:42:59;;;;;;;;;;;;;;;21.33;67.47;96850.30;591119;240;65329;-69
2022/05/02 08:45:33;;;;;;;;;;;;;;;21.34;66.87;96848.45;591374;240;68799;-70
2022/05/02 08:48:04;;;;;;;;;;;;;;;21.35;66.64;96847.36;591434;240;68644;-70
2022/05/02 08:50:40;;;;;;;;;;;;;;;21.34;66.13;96843.89;591368;240;63271;-68
2022/05/02 08:53:12;;;;;;;;;;;;;;;21.36;67.42;96843.59;591410;240;67514;-68
2022/05/02 08:55:57;;;;;;;;;;;;;;;21.37;66.90;96831.84;590893;240;68757;-69
2022/05/02 08:58:29;;;;;;;;;;;;;;;21.37;67.79;96837.20;591409;240;65393;-73
2022/05/02 09:01:10;;;;;;;;;;;;;;;21.36;66.70;96839.08;590693;240;68677;-71
2022/05/02 09:03:39;;;;;;;;;;;;;;;21.38;66.45;96852.17;590865;240;68605;-72
2022/05/02 09:06:18;;;;;;;;;;;;;;;21.37;65.69;96845.22;591083;240;63035;-70
2022/05/02 09:09:01;;;;;;;;;;;;;;;21.38;67.26;96855.64;591364;240;68672;-71
2022/05/02 09:11:34;;;;;;;;;;;;;;;21.39;65.47;96853.77;591386;240;66615;-72
2022/05/02 09:14:18;;;;;;;;;;;;;;;21.38;65.68;96841.48;591395;240;63285;-70
2022/05/02 09:16:56;;;;;;;;;;;;;;;21.39;66.36;96857.26;591067;240;66527;-71
2022/05/02 09:19:28;;;;;;;;;;;;;;;21.39;65.58;96841.22;591411;240;68298;-72
2022/05/02 09:22:06;;;;;;;;;;;;;;;21.39;66.07;96845.75;582281;240;65402;-71
2022/05/02 09:24:35;;;;;;;;;;;;;;;21.39;64.71;96851.91;591441;240;66411;-76
2022/05/02 09:27:05;;;;;;;;;;;;;;;21.40;66.68;96844.69;586762;240;66866;-71
2022/05/02 09:29:51;;;;;;;;;;;;;;;21.40;65.77;96847.36;589785;240;65416;-72
2022/05/02 09:32:21;;;;;;;;;;;;;;;21.41;66.67;96840.92;588646;241;68657;-72
2022/05/02 09:34:57;;;;;;;;;;;;;;;21.42;65.78;96866.61;588589;241;69165;-72
2022/05/02 09:37:41;;;;;;;;;;;;;;;21.42;65.74;96846.01;588626;241;65411;-72
2022/05/02 09:40:15;;;;;;;;;;;;;;;21.44;66.17;96849.21;588621;241;68667;-73
2022/05/02 09:43:03;;;;;;;;;;;;;;;21.43;65.26;96841.45;588681;241;68736;-72
2022/05/02 09:51:31;;;;;;;;;;;;;;;21.43;65.10;96836.91;588654;241;68659;-71
2022/05/02 09:54:06;;;;;;;;;;;;;;;21.44;63.73;96848.39;588616;241;63911;-71
2022/05/02 09:56:41;;;;;;;;;;;;;;;21.45;62.85;96841.98;588622;241;66715;-70
2022/05/02 09:59:10;;;;;;;;;;;;;;;21.44;63.34;96837.70;588631;241;68784;-70
2022/05/02 10:01:39;;;;;;;;;;;;;;;21.45;64.84;96855.35;588570;241;65506;-70
2022/05/02 10:04:14;;;;;;;;;;;;;;;21.45;63.05;96836.64;588554;241;68820;-70
2022/05/02 10:06:47;;;;;;;;;;;;;;;21.44;64.38;96833.17;588614;241;69131;-71
2022/05/02 10:09:31;;;;;;;;;;;;;;;21.46;63.70;96841.69;588341;241;65161;-70
2022/05/02 10:12:00;;;;;;;;;;;;;;;21.46;63.71;96836.34;588678;241;66700;-70
2022/05/02 10:14:41;;;;;;;;;;;;;;;21.47;64.04;96832.61;588691;241;66613;-70
2022/05/02 10:17:12;;;;;;;;;;;;;;;21.48;63.51;96828.06;588316;241;63371;-70
2022/05/02 10:19:58;;;;;;;;;;;;;;;21.49;62.32;96829.64;588522;241;66716;-70
2022/05/02 10:22:44;;;;;;;;;;;;;;;21.49;63.18;96824.30;588618;241;68964;-70
2022/05/02 10:25:13;;;;;;;;;;;;;;;21.49;64.56;96825.09;588632;241;65451;-70
2022/05/02 10:27:58;;;;;;;;;;;;;;;21.49;64.16;96806.38;588368;241;68906;-70
2022/05/02 10:30:27;;;;;;;;;;;;;;;21.49;64.35;96809.05;588585;240;66440;-70
2022/05/02 10:33:01;;;;;;;;;;;;;;;21.50;62.15;96802.64;588662;241;63535;-69
2022/05/02 10:35:27;;;;;;;;;;;;;;;21.52;63.77;96802.34;588642;240;68831;-69
2022/05/02 10:37:56;;;;;;;;;;;;;;;21.52;63.99;96793.53;588591;241;66263;-69
2022/05/02 10:40:31;;;;;;;;;;;;;;;21.52;63.12;96791.65;588691;241;65373;-69
2022/05/02 10:43:01;;;;;;;;;;;;;;;21.53;63.23;96793.27;588695;241;68343;-70
2022/05/02 10:45:29;;;;;;;;;;;;;;;21.54;62.67;96791.38;588627;241;66727;-70
2022/05/02 10:47:57;;;;;;;;;;;;;;;21.55;62.69;96793.77;588638;241;63151;-69
2022/05/02 10:50:34;;;;;;;;;;;;;;;21.56;62.30;96786.56;588658;241;68654;-69
2022/05/02 10:53:09;;;;;;;;;;;;;;;21.56;62.51;96783.89;588630;241;68293;-69
2022/05/02 10:55:38;;;;;;;;;;;;;;;21.56;62.54;96781.22;588483;241;63040;-70
2022/05/02 10:58:06;;;;;;;;;;;;;;;21.56;62.51;96782.01;588648;241;66273;-70
2022/05/02 11:00:36;;;;;;;;;;;;;;;21.57;62.69;96775.57;588595;241;66463;-70
2022/05/02 11:03:15;;;;;;;;;;;;;;;21.57;62.01;96778.24;588655;241;66165;-70
2022/05/02 11:05:47;;;;;;;;;;;;;;;21.58;62.87;96784.38;588546;241;68342;-71
2022/05/02 11:08:29;;;;;;;;;;;;;;;21.58;63.35;96779.86;588293;241;68670;-71
2022/05/02 11:11:01;;;;;;;;;;;;;;;21.60;62.73;96776.89;588638;241;62959;-70
2022/05/02 11:13:43;;;;;;;;;;;;;;;21.59;62.75;96775.30;588585;241;66735;-71
2022/05/02 11:16:11;;;;;;;;;;;;;;;21.59;62.75;96765.40;588625;241;66502;-70
2022/05/02 11:21:28;;;;;;;;;;;;;;;21.60;63.19;96748.27;588602;241;68650;-70
2022/05/02 11:24:00;;;;;;;;;;;;;;;21.59;62.53;96751.23;588353;241;68592;-70
2022/05/02 11:26:33;;;;;;;;;;;;;;;21.61;61.79;96767.80;588303;241;65515;-75
2022/05/02 11:29:00;;;;;;;;;;;;;;;21.58;60.16;96758.47;588535;240;68847;-70
2022/05/02 11:31:46;;;;;;;;;;;;;;;21.61;63.49;96759.78;591348;240;66788;-70
2022/05/02 11:34:25;;;;;;;;;;;;;;;21.58;61.64;96758.47;591366;240;63237;-67
2022/05/02 11:36:55;;;;;;;;;;;;;;;21.61;62.46;96759.78;591329;240;68878;-67
2022/05/02 11:39:30;;;;;;;;;;;;;;;21.61;61.59;96762.46;591422;240;68513;-68
2022/05/02 11:41:59;;;;;;;;;;;;;;;21.60;61.50;96758.17;591338;240;65418;-68
2022/05/02 11:44:29;;;;;;;;;;;;;;;21.60;61.69;96760.84;591336;240;69198;-67
2022/05/02 11:47:13;;;;;;;;;;;;;;;21.59;62.08;96754.70;591334;240;68730;-67
2022/05/02 11:49:54;;;;;;;;;;;;;;;21.60;61.08;96752.82;591292;240;71368;-67
2022/05/02 11:52:32;;;;;;;;;;;;;;;21.59;61.31;96754.70;591272;240;66435;-67
2022/05/02 11:55:00;;;;;;;;;;;;;;;21.60;60.51;96752.82;591381;240;68322;-67
2022/05/02 11:57:29;;;;;;;;;;;;;;;21.61;61.16;96735.72;591434;240;65473;-67
2022/05/02 12:00:11;;;;;;;;;;;;;;;21.59;61.06;96745.89;591389;240;68825;-67
2022/05/02 12:02:40;;;;;;;;;;;;;;;21.61;61.20;96754.44;591362;240;67082;-67
2022/05/02 12:05:23;;;;;;;;;;;;;;;21.60;60.61;96739.45;591443;240;62915;-67
2022/05/02 12:07:52;;;;;;;;;;;;;;;21.61;61.17;96747.20;591382;240;68647;-67
2022/05/02 12:10:21;;;;;;;;;;;;;;;21.61;60.54;96741.86;590659;240;68979;-67
2022/05/02 12:12:52;;;;;;;;;;;;;;;21.61;60.77;96741.86;591404;240;65160;-67
2022/05/02 12:15:20;;;;;;;;;;;;;;;21.61;61.55;96741.06;591414;240;68959;-67
2022/05/02 12:17:52;;;;;;;;;;;;;;;21.62;61.38;96723.93;591305;240;68738;-67
2022/05/02 12:20:24;;;;;;;;;;;;;;;21.61;60.76;96736.51;591469;240;65621;-67
2022/05/02 12:23:02;;;;;;;;;;;;;;;21.62;59.89;96727.39;591147;240;68602;-68
2022/05/02 12:25:31;;;;;;;;;;;;;;;21.62;60.77;96723.93;591356;240;67756;-67
2022/05/02 12:28:03;;;;;;;;;;;;;;;21.63;59.89;96734.33;591318;240;65308;-67
2022/05/02 12:30:29;;;;;;;;;;;;;;;21.64;60.94;96737.83;591267;240;68885;-67
2022/05/02 12:33:01;;;;;;;;;;;;;;;21.63;60.54;96739.67;591373;240;66527;-67
2022/05/02 12:35:30;;;;;;;;;;;;;;;21.63;60.55;96731.66;591455;240;63202;-67
2022/05/02 12:37:57;;;;;;;;;;;;;;;21.64;60.19;96732.48;591174;240;68625;-67
2022/05/02 12:40:25;;;;;;;;;;;;;;;21.64;60.94;96727.12;591401;240;68481;-68
2022/05/02 12:42:54;;;;;;;;;;;;;;;21.65;60.61;96736.73;591405;240;63009;-68
2022/05/02 12:45:23;;;;;;;;;;;;;;;21.65;60.14;96742.88;591440;240;68656;-67
2022/05/02 12:47:57;;;;;;;;;;;;;;;21.65;60.71;96736.73;591420;240;68512;-67
2022/05/02 12:50:29;;;;;;;;;;;;;;;21.66;61.12;96735.64;591419;240;65390;-67
2022/05/02 12:52:57;;;;;;;;;;;;;;;21.66;60.98;96732.97;591346;240;68580;-67
2022/05/02 12:55:26;;;;;;;;;;;;;;;21.66;60.39;96739.14;591400;240;66670;-67
2022/05/02 13:00:41;;;;;;;;;;;;;;;21.66;61.40;96728.45;591365;240;66772;-66
2022/05/02 13:03:14;;;;;;;;;;;;;;;21.66;60.44;96730.30;591467;240;68719;-66
2022/05/02 13:05:44;;;;;;;;;;;;;;;21.66;60.37;96733.80;591381;240;65630;-66
2022/05/02 13:08:13;;;;;;;;;;;;;;;21.67;60.90;96734.59;591139;240;68935;-67
2022/05/02 13:10:42;;;;;;;;;;;;;;;21.67;60.61;96738.05;591463;240;68512;-67
2022/05/02 13:13:10;;;;;;;;;;;;;;;21.68;60.67;96730.82;591442;240;63349;-68
2022/05/02 13:15:39;;;;;;;;;;;;;;;21.68;60.97;96736.96;591445;240;68813;-67
2022/05/02 13:18:14;;;;;;;;;;;;;;;21.68;60.59;96736.17;591415;240;67091;-67
2022/05/02 13:20:48;;;;;;;;;;;;;;;21.69;61.16;96735.11;591407;240;65397;-67
2022/05/02 13:23:16;;;;;;;;;;;;;;;21.69;61.14;96738.58;591468;240;68912;-67
2022/05/02 13:26:02;;;;;;;;;;;;;;;21.69;60.67;96735.90;591389;240;68783;-66
2022/05/02 13:28:34;;;;;;;;;;;;;;;21.70;60.84;96739.37;591322;240;65346;-66
2022/05/02 13:31:12;;;;;;;;;;;;;;;21.71;60.81;96735.60;590881;240;70134;-67